createdAt,value
2023-03-31T00:01:53.004Z,100438.72
2023-03-31T00:04:23.955Z,100433.50
2023-03-31T00:06:53.998Z,100431.75
2023-03-31T00:09:22.164Z,100423.25
2023-03-31T00:11:49.833Z,100414.69
2023-03-31T00:14:18.985Z,100401.06
2023-03-31T00:16:45.877Z,100406.13
2023-03-31T00:19:18.345Z,100398.44
2023-03-31T00:21:46.001Z,100399.22
2023-03-31T00:24:13.985Z,100388.06
2023-03-31T00:26:40.512Z,100395.69
2023-03-31T00:29:08.369Z,100383.66
2023-03-31T00:31:36.045Z,100383.59
2023-03-31T00:34:02.783Z,100373.31
2023-03-31T00:36:29.816Z,100367.25
2023-03-31T00:38:59.844Z,100361.25
2023-03-31T00:41:27.722Z,100365.50
2023-03-31T00:44:13.085Z,100351.59
2023-03-31T00:47:07.065Z,100346.41
2023-03-31T00:49:40.578Z,100342.03
2023-03-31T00:52:19.546Z,100333.34
2023-03-31T00:54:49.454Z,100338.34
2023-03-31T00:57:16.514Z,100322.00
2023-03-31T00:59:53.764Z,100321.94
2023-03-31T01:02:25.584Z,100321.03
2023-03-31T01:04:59.262Z,100314.06
2023-03-31T01:07:35.657Z,100312.25
2023-03-31T01:10:05.030Z,100307.91
2023-03-31T01:12:34.256Z,100295.84
2023-03-31T01:15:03.314Z,100297.47
2023-03-31T01:17:30.799Z,100287.00
2023-03-31T01:20:14.666Z,100279.31
2023-03-31T01:23:03.098Z,100276.94
2023-03-31T01:25:54.385Z,100265.94
2023-03-31T01:28:31.798Z,100264.38
2023-03-31T01:31:13.423Z,100259.31
2023-03-31T01:34:03.151Z,100248.19
2023-03-31T01:36:59.938Z,100238.78
2023-03-31T01:39:29.776Z,100228.53
2023-03-31T01:42:09.714Z,100228.66
2023-03-31T01:44:45.990Z,100222.69
2023-03-31T01:47:25.805Z,100211.59
2023-03-31T01:50:02.472Z,100203.97
2023-03-31T01:52:38.094Z,100199.72
2023-03-31T01:55:48.204Z,100197.16
2023-03-31T01:58:22.657Z,100185.16
2023-03-31T02:00:56.891Z,100183.50
2023-03-31T02:03:31.080Z,100180.03
2023-03-31T02:06:01.701Z,100182.53
2023-03-31T02:09:11.931Z,100168.00
2023-03-31T02:11:41.717Z,100158.41
2023-03-31T02:14:12.043Z,100158.34
2023-03-31T02:16:47.944Z,100151.44
2023-03-31T02:19:21.265Z,100142.81
2023-03-31T02:21:49.862Z,100137.66
2023-03-31T02:24:19.885Z,100133.22
2023-03-31T02:26:54.973Z,100128.91
2023-03-31T02:29:22.003Z,100119.44
2023-03-31T02:32:17.476Z,100115.06
2023-03-31T02:34:43.977Z,100101.25
2023-03-31T02:37:11.093Z,100094.31
2023-03-31T02:39:41.562Z,100088.28
2023-03-31T02:42:09.042Z,100080.59
2023-03-31T02:44:39.636Z,100085.66
2023-03-31T02:47:10.028Z,100076.22
2023-03-31T02:49:39.902Z,100064.25
2023-03-31T02:52:12.863Z,100057.44
2023-03-31T02:55:10.218Z,100051.47
2023-03-31T02:57:55.345Z,100036.97
2023-03-31T03:00:34.093Z,100039.63
2023-03-31T03:03:12.898Z,100027.75
2023-03-31T03:05:58.767Z,100023.53
2023-03-31T03:08:46.667Z,100009.94
2023-03-31T03:11:22.568Z,100009.19
2023-03-31T03:14:09.179Z,99994.78
2023-03-31T03:16:43.715Z,99984.59
2023-03-31T03:19:17.739Z,99989.72
2023-03-31T03:21:45.868Z,99987.22
2023-03-31T03:24:12.441Z,99981.31
2023-03-31T03:26:38.879Z,99970.22
2023-03-31T03:29:05.438Z,99973.63
2023-03-31T03:31:33.560Z,99966.91
2023-03-31T03:34:01.065Z,99963.50
2023-03-31T03:36:27.508Z,99962.75
2023-03-31T03:38:53.936Z,99959.38
2023-03-31T03:41:21.213Z,99948.25
2023-03-31T03:43:47.744Z,99939.75
2023-03-31T03:46:14.188Z,99927.00
2023-03-31T03:48:40.819Z,99915.06
2023-03-31T03:51:07.414Z,99912.56
2023-03-31T03:53:33.864Z,99916.03
2023-03-31T03:56:01.457Z,99910.16
2023-03-31T03:58:27.881Z,99897.47
2023-03-31T04:00:54.368Z,99894.00
2023-03-31T04:03:20.826Z,99900.13
2023-03-31T04:05:49.795Z,99890.75
2023-03-31T04:08:17.237Z,99891.66
2023-03-31T04:10:49.134Z,99895.22
2023-03-31T04:13:16.852Z,99886.75
2023-03-31T04:15:43.779Z,99872.31
2023-03-31T04:18:18.505Z,99858.75
2023-03-31T04:20:45.566Z,99858.84
2023-03-31T04:23:14.775Z,99837.53
2023-03-31T04:25:46.520Z,99831.59
2023-03-31T04:28:14.527Z,99820.53
2023-03-31T04:30:41.112Z,99806.88
2023-03-31T04:33:07.838Z,99812.84
2023-03-31T04:35:49.610Z,99793.97
2023-03-31T04:38:18.753Z,99789.78
2023-03-31T04:40:47.649Z,99777.78
2023-03-31T04:43:14.909Z,99764.22
2023-03-31T04:45:41.597Z,99761.66
2023-03-31T04:48:08.566Z,99759.00
2023-03-31T04:50:35.666Z,99757.25
2023-03-31T04:53:03.200Z,99751.16
2023-03-31T04:55:29.856Z,99753.66
2023-03-31T04:57:56.804Z,99749.28
2023-03-31T05:00:23.693Z,99739.88
2023-03-31T05:02:50.405Z,99738.94
2023-03-31T05:05:17.422Z,99738.03
2023-03-31T05:07:44.070Z,99731.19
2023-03-31T05:10:10.818Z,99723.47
2023-03-31T05:12:38.065Z,99720.09
2023-03-31T05:15:06.935Z,99708.19
2023-03-31T05:17:35.484Z,99704.72
2023-03-31T05:20:02.175Z,99697.84
2023-03-31T05:22:28.563Z,99697.03
2023-03-31T05:24:54.941Z,99687.53
2023-03-31T05:27:21.927Z,99691.75
2023-03-31T05:29:48.390Z,99685.72
2023-03-31T05:32:14.809Z,99692.50
2023-03-31T05:34:43.266Z,99689.03
2023-03-31T05:37:09.714Z,99676.19
2023-03-31T05:39:36.123Z,99673.63
2023-03-31T05:42:03.322Z,99661.66
2023-03-31T05:44:29.711Z,99664.22
2023-03-31T05:46:56.370Z,99653.97
2023-03-31T05:49:23.115Z,99659.03
2023-03-31T05:51:50.404Z,99659.03
2023-03-31T05:54:16.811Z,99652.16
2023-03-31T05:56:43.894Z,99639.34
2023-03-31T05:59:10.409Z,99646.03
2023-03-31T06:01:36.984Z,99641.75
2023-03-31T06:04:03.549Z,99647.63
2023-03-31T06:06:30.103Z,99639.94
2023-03-31T06:08:56.653Z,99637.38
2023-03-31T06:11:23.186Z,99631.31
2023-03-31T06:13:49.954Z,99626.13
2023-03-31T06:16:17.620Z,99627.78
2023-03-31T06:18:45.294Z,99618.28
2023-03-31T06:21:13.978Z,99615.66
2023-03-31T06:23:40.465Z,99624.88
2023-03-31T06:26:08.608Z,99618.78
2023-03-31T06:28:36.194Z,99605.88
2023-03-31T06:31:04.766Z,99600.66
2023-03-31T06:33:32.422Z,99606.56
2023-03-31T06:36:01.555Z,99607.22
2023-03-31T06:38:28.124Z,99610.47
2023-03-31T06:40:54.578Z,99593.16
2023-03-31T06:43:21.077Z,99601.53
2023-03-31T06:45:48.527Z,99599.78
2023-03-31T06:48:15.012Z,99595.41
2023-03-31T06:50:42.418Z,99600.44
2023-03-31T06:53:09.400Z,99595.22
2023-03-31T06:55:36.705Z,99586.63
2023-03-31T06:58:04.742Z,99585.81
2023-03-31T07:00:32.762Z,99590.09
2023-03-31T07:02:59.691Z,99582.41
2023-03-31T07:05:29.432Z,99585.72
2023-03-31T07:07:57.538Z,99575.38
2023-03-31T07:10:26.273Z,99581.25
2023-03-31T07:12:52.713Z,99577.78
2023-03-31T07:15:19.171Z,99571.84
2023-03-31T07:17:45.623Z,99576.03
2023-03-31T07:20:16.160Z,99580.25
2023-03-31T07:22:43.760Z,99574.31
2023-03-31T07:25:11.593Z,99581.25
2023-03-31T07:27:38.450Z,99576.19
2023-03-31T07:30:10.434Z,99573.47
2023-03-31T07:32:41.163Z,99566.63
2023-03-31T07:35:09.278Z,99569.91
2023-03-31T07:37:41.227Z,99568.06
2023-03-31T07:40:10.117Z,99566.28
2023-03-31T07:42:36.571Z,99552.47
2023-03-31T07:45:06.027Z,99562.56
2023-03-31T07:47:32.891Z,99548.97
2023-03-31T07:49:59.528Z,99556.47
2023-03-31T07:52:26.050Z,99552.94
2023-03-31T07:54:52.580Z,99546.72
2023-03-31T07:57:19.383Z,99543.97
2023-03-31T07:59:47.509Z,99547.41
2023-03-31T08:02:16.500Z,99546.63
2023-03-31T08:04:44.478Z,99545.06
2023-03-31T08:07:13.077Z,99548.56
2023-03-31T08:09:41.038Z,99538.38
2023-03-31T08:12:07.614Z,99543.25
2023-03-31T08:14:40.479Z,99541.50
2023-03-31T08:17:07.492Z,99530.16
2023-03-31T08:19:34.039Z,99528.91
2023-03-31T08:22:00.620Z,99522.44
2023-03-31T08:24:27.022Z,99525.31
2023-03-31T08:26:54.568Z,99515.16
2023-03-31T08:29:21.149Z,99512.91
2023-03-31T08:31:47.849Z,99510.59
2023-03-31T08:34:14.337Z,99515.34
2023-03-31T08:36:41.315Z,99510.47
2023-03-31T08:39:08.072Z,99514.00
2023-03-31T08:41:58.747Z,99509.66
2023-03-31T08:44:46.371Z,99502.31
2023-03-31T08:47:20.134Z,99496.50
2023-03-31T08:49:55.353Z,99495.22
2023-03-31T08:52:32.944Z,99497.41
2023-03-31T08:55:04.190Z,99491.72
2023-03-31T08:57:38.315Z,99487.78
2023-03-31T09:00:08.049Z,99485.88
2023-03-31T09:03:08.103Z,99492.38
2023-03-31T09:05:34.563Z,99493.88
2023-03-31T09:08:33.418Z,99487.97
2023-03-31T09:11:10.788Z,99485.59
2023-03-31T09:13:55.843Z,99481.34
2023-03-31T09:16:32.949Z,99474.50
2023-03-31T09:19:01.885Z,99476.59
2023-03-31T09:21:40.006Z,99476.31
2023-03-31T09:24:21.122Z,99467.56
2023-03-31T09:27:07.472Z,99459.81
2023-03-31T09:29:41.063Z,99472.41
2023-03-31T09:32:16.812Z,99456.19
2023-03-31T09:34:44.498Z,99459.72
2023-03-31T09:37:12.172Z,99445.94
2023-03-31T09:39:40.181Z,99452.25
2023-03-31T09:42:07.462Z,99450.31
2023-03-31T09:44:40.126Z,99447.44
2023-03-31T09:47:12.470Z,99456.88
2023-03-31T09:49:39.629Z,99451.06
2023-03-31T09:52:23.779Z,99447.09
2023-03-31T09:54:52.953Z,99443.50
2023-03-31T09:57:33.554Z,99453.06
2023-03-31T10:00:14.719Z,99445.56
2023-03-31T10:02:45.886Z,99440.69
2023-03-31T10:05:27.220Z,99445.53
2023-03-31T10:08:18.006Z,99441.22
2023-03-31T10:10:54.594Z,99443.69
2023-03-31T10:13:25.473Z,99445.88
2023-03-31T10:16:02.742Z,99429.28
2023-03-31T10:18:38.424Z,99431.06
2023-03-31T10:21:08.148Z,99424.34
2023-03-31T10:23:36.400Z,99423.81
2023-03-31T10:26:05.491Z,99411.59
2023-03-31T10:28:35.317Z,99415.03
2023-03-31T10:31:03.484Z,99412.09
2023-03-31T10:33:35.127Z,99407.59
2023-03-31T10:36:15.666Z,99409.25
2023-03-31T10:38:47.881Z,99412.25
2023-03-31T10:41:20.548Z,99405.34
2023-03-31T10:43:58.688Z,99399.81
2023-03-31T10:46:52.546Z,99395.97
2023-03-31T10:49:22.060Z,99396.13
2023-03-31T10:52:00.698Z,99389.97
2023-03-31T10:54:27.522Z,99389.34
2023-03-31T10:57:05.570Z,99402.97
2023-03-31T10:59:52.099Z,99390.41
2023-03-31T11:02:42.889Z,99404.88
2023-03-31T11:05:22.586Z,99391.03
2023-03-31T11:08:10.418Z,99394.44
2023-03-31T11:11:00.804Z,99400.84
2023-03-31T11:14:02.209Z,99380.97
2023-03-31T11:16:34.389Z,99389.63
2023-03-31T11:19:29.386Z,99386.63
2023-03-31T11:22:05.430Z,99390.97
2023-03-31T11:24:50.791Z,99386.72
2023-03-31T11:27:17.144Z,99390.53
2023-03-31T11:29:51.418Z,99377.13
2023-03-31T11:32:33.814Z,99376.94
2023-03-31T11:35:19.062Z,99378.47
2023-03-31T11:38:36.760Z,99369.22
2023-03-31T11:41:09.540Z,99370.34
2023-03-31T11:43:52.927Z,99371.75
2023-03-31T11:46:23.892Z,99365.44
2023-03-31T11:48:59.768Z,99371.97
2023-03-31T11:51:55.698Z,99378.88
2023-03-31T11:54:33.278Z,99392.19
2023-03-31T11:57:07.043Z,99373.88
2023-03-31T11:59:34.513Z,99377.56
2023-03-31T12:02:07.090Z,99387.97
2023-03-31T12:04:44.645Z,99380.63
2023-03-31T12:07:28.687Z,99384.44
2023-03-31T12:10:06.024Z,99375.25
2023-03-31T12:12:42.155Z,99386.13
2023-03-31T12:15:22.355Z,99365.34
2023-03-31T12:18:00.832Z,99363.78
2023-03-31T12:20:58.206Z,99347.13
2023-03-31T12:23:29.410Z,99354.94
2023-03-31T12:26:08.159Z,99350.38
2023-03-31T12:28:37.696Z,99355.94
2023-03-31T12:31:07.536Z,99355.09
2023-03-31T12:33:40.949Z,99347.78
2023-03-31T12:36:25.344Z,99352.84
2023-03-31T12:39:19.172Z,99341.63
2023-03-31T12:42:24.699Z,99348.75
2023-03-31T12:45:18.878Z,99356.66
2023-03-31T12:48:13.890Z,99341.69
2023-03-31T12:50:49.418Z,99328.81
2023-03-31T12:53:43.741Z,99340.03
2023-03-31T12:56:10.219Z,99330.91
2023-03-31T12:58:40.007Z,99324.75
2023-03-31T13:01:17.182Z,99324.47
2023-03-31T13:03:49.427Z,99314.81
2023-03-31T13:06:28.089Z,99306.69
2023-03-31T13:08:57.054Z,99300.41
2023-03-31T13:11:38.546Z,99294.31
2023-03-31T13:14:17.340Z,99288.88
2023-03-31T13:16:43.962Z,99289.06
2023-03-31T13:19:13.378Z,99287.13
2023-03-31T13:22:01.522Z,99289.81
2023-03-31T13:24:30.042Z,99283.53
2023-03-31T13:26:59.414Z,99277.75
2023-03-31T13:29:41.000Z,99285.03
2023-03-31T13:32:18.549Z,99279.69
2023-03-31T13:35:05.684Z,99279.28
2023-03-31T13:37:50.334Z,99276.06
2023-03-31T13:40:49.861Z,99277.31
2023-03-31T13:43:34.988Z,99266.50
2023-03-31T13:46:16.942Z,99278.97
2023-03-31T13:49:21.666Z,99272.16
2023-03-31T13:52:03.936Z,99276.28
2023-03-31T13:55:01.981Z,99273.91
2023-03-31T13:57:56.320Z,99279.16
2023-03-31T14:00:36.330Z,99274.44
2023-03-31T14:03:19.128Z,99276.50
2023-03-31T14:05:53.969Z,99264.75
2023-03-31T14:08:31.301Z,99257.75
2023-03-31T14:11:26.237Z,99258.28
2023-03-31T14:14:03.412Z,99263.94
2023-03-31T14:16:33.566Z,99260.63
2023-03-31T14:19:28.400Z,99248.38
2023-03-31T14:22:32.566Z,99255.19
2023-03-31T14:25:16.310Z,99241.16
2023-03-31T14:28:05.082Z,99237.56
2023-03-31T14:30:53.458Z,99237.16
2023-03-31T14:33:41.526Z,99231.59
2023-03-31T14:36:29.432Z,99231.91
2023-03-31T14:39:03.362Z,99220.56
2023-03-31T14:41:30.044Z,99223.38
2023-03-31T14:44:01.665Z,99218.63
2023-03-31T14:46:34.770Z,99216.88
2023-03-31T14:49:06.996Z,99221.09
2023-03-31T14:51:33.484Z,99211.00
2023-03-31T14:54:01.903Z,99225.63
2023-03-31T14:56:37.450Z,99228.59
2023-03-31T14:59:06.301Z,99229.63
2023-03-31T15:01:37.677Z,99234.59
2023-03-31T15:04:09.549Z,99229.66
2023-03-31T15:06:39.016Z,99227.28
2023-03-31T15:09:06.101Z,99225.22
2023-03-31T15:11:32.962Z,99222.31
2023-03-31T15:14:05.669Z,99225.44
2023-03-31T15:16:41.753Z,99223.03
2023-03-31T15:19:16.240Z,99214.53
2023-03-31T15:21:43.933Z,99219.34
2023-03-31T15:24:13.853Z,99217.63
2023-03-31T15:26:58.975Z,99218.00
2023-03-31T15:29:42.975Z,99219.16
2023-03-31T15:32:22.735Z,99209.03
2023-03-31T15:34:51.307Z,99220.88
2023-03-31T15:37:24.619Z,99212.84
2023-03-31T15:39:51.194Z,99220.03
2023-03-31T15:42:18.442Z,99210.88
2023-03-31T15:44:46.792Z,99209.16
2023-03-31T15:47:18.268Z,99216.56
2023-03-31T15:49:51.206Z,99215.94
2023-03-31T15:52:35.425Z,99215.41
2023-03-31T15:55:22.568Z,99208.59
2023-03-31T15:57:50.822Z,99210.38
2023-03-31T16:00:43.194Z,99212.28
2023-03-31T16:03:16.987Z,99212.28
2023-03-31T16:05:58.928Z,99207.47
2023-03-31T16:08:31.426Z,99207.16
2023-03-31T16:11:04.986Z,99211.59
2023-03-31T16:13:32.616Z,99204.28
2023-03-31T16:15:59.568Z,99211.06
2023-03-31T16:18:35.975Z,99207.06
2023-03-31T16:21:05.366Z,99199.41
2023-03-31T16:23:35.768Z,99197.13
2023-03-31T16:26:02.580Z,99205.66
2023-03-31T16:28:32.881Z,99212.75
2023-03-31T16:31:02.376Z,99198.00
2023-03-31T16:33:31.358Z,99201.69
2023-03-31T16:36:01.543Z,99205.38
2023-03-31T16:38:29.860Z,99191.59
2023-03-31T16:40:58.135Z,99186.56
2023-03-31T16:43:26.369Z,99187.56
2023-03-31T16:45:55.430Z,99185.19
2023-03-31T16:48:24.321Z,99180.44
2023-03-31T16:50:54.105Z,99182.22
2023-03-31T16:53:23.187Z,99174.69
2023-03-31T16:55:49.872Z,99181.66
2023-03-31T16:58:17.774Z,99178.38
2023-03-31T17:00:45.611Z,99177.44
2023-03-31T17:03:13.924Z,99176.63
2023-03-31T17:05:46.685Z,99169.81
2023-03-31T17:08:14.619Z,99175.97
2023-03-31T17:10:41.853Z,99164.44
2023-03-31T17:13:09.384Z,99174.34
2023-03-31T17:15:39.945Z,99180.69
2023-03-31T17:18:07.294Z,99174.06
2023-03-31T17:20:34.314Z,99177.50
2023-03-31T17:23:01.632Z,99174.06
2023-03-31T17:25:28.452Z,99169.88
2023-03-31T17:28:00.652Z,99169.03
2023-03-31T17:30:28.018Z,99173.25
2023-03-31T17:32:54.465Z,99163.81
2023-03-31T17:35:21.718Z,99163.81
2023-03-31T17:37:53.805Z,99162.28
2023-03-31T17:40:21.741Z,99157.06
2023-03-31T17:42:48.273Z,99157.97
2023-03-31T17:45:15.122Z,99156.22
2023-03-31T17:47:42.668Z,99160.44
2023-03-31T17:50:09.759Z,99167.50
2023-03-31T17:52:36.554Z,99157.50
2023-03-31T17:55:04.414Z,99158.53
2023-03-31T17:57:31.798Z,99161.91
2023-03-31T17:59:58.797Z,99159.44
2023-03-31T18:02:25.546Z,99156.22
2023-03-31T18:04:52.424Z,99167.44
2023-03-31T18:07:18.947Z,99155.41
2023-03-31T18:09:45.472Z,99146.06
2023-03-31T18:12:11.862Z,99154.59
2023-03-31T18:14:38.323Z,99151.28
2023-03-31T18:17:05.038Z,99149.66
2023-03-31T18:19:31.919Z,99146.34
2023-03-31T18:21:58.303Z,99148.09
2023-03-31T18:24:24.742Z,99143.16
2023-03-31T18:26:51.542Z,99155.97
2023-03-31T18:29:17.974Z,99155.03
2023-03-31T18:31:44.473Z,99151.56
2023-03-31T18:34:13.335Z,99153.31
2023-03-31T18:36:40.023Z,99150.75
2023-03-31T18:39:06.617Z,99143.88
2023-03-31T18:41:33.071Z,99148.09
2023-03-31T18:44:00.723Z,99162.75
2023-03-31T18:46:27.208Z,99154.31
2023-03-31T18:48:53.625Z,99160.38
2023-03-31T18:51:20.144Z,99157.00
2023-03-31T18:53:46.683Z,99159.47
2023-03-31T18:56:13.211Z,99153.50
2023-03-31T18:58:39.691Z,99157.81
2023-03-31T19:01:06.266Z,99162.13
2023-03-31T19:03:32.845Z,99160.47
2023-03-31T19:06:05.168Z,99157.91
2023-03-31T19:08:32.368Z,99158.84
2023-03-31T19:11:16.881Z,99159.66
2023-03-31T19:13:44.324Z,99165.78
2023-03-31T19:16:14.345Z,99159.00
2023-03-31T19:18:41.056Z,99166.63
2023-03-31T19:21:07.750Z,99156.53
2023-03-31T19:23:34.776Z,99163.22
2023-03-31T19:26:04.107Z,99161.56
2023-03-31T19:28:31.506Z,99163.31
2023-03-31T19:31:04.218Z,99151.47
2023-03-31T19:33:30.780Z,99155.91
2023-03-31T19:35:57.781Z,99160.84
2023-03-31T19:38:26.949Z,99160.94
2023-03-31T19:40:53.500Z,99155.81
2023-03-31T19:43:23.071Z,99155.91
2023-03-31T19:45:53.175Z,99146.44
2023-03-31T19:48:20.765Z,99146.44
2023-03-31T19:50:51.271Z,99145.72
2023-03-31T19:53:17.972Z,99146.63
2023-03-31T19:55:44.482Z,99133.19
2023-03-31T19:58:11.135Z,99140.78
2023-03-31T20:00:39.153Z,99141.69
2023-03-31T20:03:06.143Z,99133.09
2023-03-31T20:05:33.416Z,99133.19
2023-03-31T20:07:59.862Z,99132.44
2023-03-31T20:10:26.401Z,99136.66
2023-03-31T20:12:52.834Z,99128.16
2023-03-31T20:15:19.311Z,99128.25
2023-03-31T20:17:46.666Z,99120.56
2023-03-31T20:20:13.369Z,99119.81
2023-03-31T20:22:41.251Z,99118.88
2023-03-31T20:25:08.227Z,99124.03
2023-03-31T20:27:34.761Z,99119.00
2023-03-31T20:30:01.639Z,99120.66
2023-03-31T20:32:28.068Z,99116.53
2023-03-31T20:34:54.681Z,99117.44
2023-03-31T20:37:21.153Z,99107.16
2023-03-31T20:39:48.467Z,99103.97
2023-03-31T20:42:14.891Z,99109.81
2023-03-31T20:44:41.753Z,99104.69
2023-03-31T20:47:09.235Z,99093.72
2023-03-31T20:49:35.741Z,99099.75
2023-03-31T20:52:02.509Z,99090.41
2023-03-31T20:54:28.885Z,99087.13
2023-03-31T20:56:55.373Z,99105.06
2023-03-31T20:59:22.197Z,99106.88
2023-03-31T21:01:49.604Z,99106.06
2023-03-31T21:04:17.030Z,99106.88
2023-03-31T21:06:46.469Z,99103.59
2023-03-31T21:09:14.614Z,99105.25
2023-03-31T21:11:41.555Z,99101.94
2023-03-31T21:14:12.648Z,99111.28
2023-03-31T21:16:40.089Z,99106.16
2023-03-31T21:19:06.598Z,99107.91
2023-03-31T21:21:35.173Z,99102.88
2023-03-31T21:24:01.949Z,99102.88
2023-03-31T21:26:28.713Z,99110.63
2023-03-31T21:28:55.588Z,99103.69
2023-03-31T21:31:24.516Z,99117.44
2023-03-31T21:33:52.659Z,99103.88
2023-03-31T21:36:23.780Z,99109.91
2023-03-31T21:38:52.864Z,99109.81
2023-03-31T21:41:22.763Z,99108.16
2023-03-31T21:43:50.869Z,99108.25
2023-03-31T21:46:20.690Z,99108.25
2023-03-31T21:48:48.074Z,99114.22
2023-03-31T21:51:14.823Z,99103.13
2023-03-31T21:53:41.402Z,99110.00
2023-03-31T21:56:07.907Z,99113.38
2023-03-31T21:58:34.478Z,99106.72
2023-03-31T22:01:03.955Z,99121.25
2023-03-31T22:03:34.268Z,99112.66
2023-03-31T22:06:09.540Z,99104.97
2023-03-31T22:08:37.875Z,99120.34
2023-03-31T22:11:06.808Z,99106.81
2023-03-31T22:13:33.556Z,99111.94
2023-03-31T22:16:01.880Z,99118.69
2023-03-31T22:18:29.684Z,99108.53
2023-03-31T22:20:57.022Z,99115.41
2023-03-31T22:23:23.572Z,99117.13
2023-03-31T22:25:49.970Z,99121.34
2023-03-31T22:28:17.008Z,99124.00
2023-03-31T22:30:44.044Z,99119.63
2023-03-31T22:33:10.557Z,99121.34
2023-03-31T22:35:37.275Z,99121.44
2023-03-31T22:38:05.074Z,99122.25
2023-03-31T22:40:32.774Z,99123.91
2023-03-31T22:43:00.867Z,99117.13
2023-03-31T22:45:27.310Z,99123.09
2023-03-31T22:47:53.863Z,99123.19
2023-03-31T22:50:20.411Z,99122.34
2023-03-31T22:52:46.952Z,99130.03
2023-03-31T22:55:13.450Z,99133.44
2023-03-31T22:57:40.147Z,99127.47
2023-03-31T23:00:07.567Z,99130.97
2023-03-31T23:02:34.023Z,99136.84
2023-03-31T23:05:00.688Z,99137.72
2023-03-31T23:07:27.993Z,99131.69
2023-03-31T23:09:54.403Z,99133.44
2023-03-31T23:12:20.854Z,99140.31
2023-03-31T23:14:47.657Z,99146.28
2023-03-31T23:17:14.243Z,99139.56
2023-03-31T23:19:40.775Z,99137.72
2023-03-31T23:22:07.169Z,99142.06
2023-03-31T23:24:33.537Z,99143.81
2023-03-31T23:26:59.930Z,99147.28
2023-03-31T23:29:27.364Z,99142.97
2023-03-31T23:31:54.009Z,99142.16
2023-03-31T23:34:20.457Z,99148.94
2023-03-31T23:36:46.908Z,99145.53
2023-03-31T23:39:13.491Z,99151.50
2023-03-31T23:41:39.905Z,99144.63
2023-03-31T23:44:06.846Z,99155.78
2023-03-31T23:46:33.686Z,99149.03
2023-03-31T23:49:02.571Z,99150.56
2023-03-31T23:51:28.999Z,99157.53
2023-03-31T23:53:55.647Z,99148.09
2023-03-31T23:56:22.251Z,99154.88
2023-03-31T23:58:48.773Z,99151.50
